createdAt,value
2019-03-18T00:00:49.660Z,27.40
2019-03-18T00:03:21.743Z,27.50
2019-03-18T00:05:54.121Z,27.50
2019-03-18T00:08:26.208Z,27.50
2019-03-18T00:10:58.362Z,27.50
2019-03-18T00:13:30.680Z,27.50
2019-03-18T00:16:02.867Z,27.50
2019-03-18T00:18:35.183Z,27.50
2019-03-18T00:21:08.571Z,27.50
2019-03-18T00:23:40.590Z,27.50
2019-03-18T00:26:12.651Z,27.50
2019-03-18T00:28:45.112Z,27.50
2019-03-18T00:31:17.523Z,27.60
2019-03-18T00:33:49.626Z,27.60
2019-03-18T00:36:22.612Z,27.60
2019-03-18T00:38:54.618Z,27.60
2019-03-18T00:41:27.459Z,27.70
2019-03-18T00:44:00.290Z,27.70
2019-03-18T00:46:32.812Z,27.70
2019-03-18T00:49:05.793Z,27.80
2019-03-18T00:51:37.844Z,27.80
2019-03-18T00:54:10.240Z,27.90
2019-03-18T00:56:43.333Z,27.90
2019-03-18T00:59:15.578Z,27.90
2019-03-18T01:01:47.725Z,28.00
2019-03-18T01:04:19.847Z,28.10
2019-03-18T01:06:51.940Z,28.10
2019-03-18T01:09:24.514Z,28.10
2019-03-18T01:11:56.645Z,28.20
2019-03-18T01:14:28.959Z,28.20
2019-03-18T01:17:01.708Z,28.30
2019-03-18T01:19:33.868Z,28.30
2019-03-18T01:22:08.171Z,28.40
2019-03-18T01:24:40.195Z,28.40
2019-03-18T01:27:12.422Z,28.50
2019-03-18T01:29:44.480Z,28.60
2019-03-18T01:32:16.603Z,28.60
2019-03-18T01:34:48.365Z,28.70
2019-03-18T01:37:20.560Z,28.70
2019-03-18T01:39:52.806Z,28.80
2019-03-18T01:42:28.518Z,28.80
2019-03-18T01:45:01.086Z,28.90
2019-03-18T01:47:33.578Z,29.00
2019-03-18T01:50:06.653Z,29.00
2019-03-18T01:52:38.764Z,29.10
2019-03-18T01:55:11.037Z,29.10
2019-03-18T01:57:43.888Z,29.20
2019-03-18T02:00:20.180Z,29.30
2019-03-18T02:03:12.542Z,29.30
2019-03-18T02:05:45.104Z,29.40
2019-03-18T02:08:17.363Z,29.50
2019-03-18T02:10:49.658Z,29.60
2019-03-18T02:13:21.561Z,29.60
2019-03-18T02:15:54.096Z,29.70
2019-03-18T02:18:26.086Z,29.70
2019-03-18T02:20:58.451Z,29.80
2019-03-18T02:23:31.537Z,29.80
2019-03-18T02:26:04.803Z,29.90
2019-03-18T02:28:36.823Z,29.90
2019-03-18T02:31:29.159Z,30.00
2019-03-18T02:34:04.857Z,30.00
2019-03-18T02:36:37.119Z,30.10
2019-03-18T02:39:09.789Z,30.20
2019-03-18T02:41:46.176Z,30.20
2019-03-18T02:44:18.585Z,30.20
2019-03-18T02:46:50.881Z,30.30
2019-03-18T02:49:23.200Z,30.30
2019-03-18T02:51:55.101Z,30.30
2019-03-18T02:54:27.299Z,30.40
2019-03-18T02:56:59.903Z,30.50
2019-03-18T02:59:31.923Z,30.60
2019-03-18T03:02:04.871Z,30.60
2019-03-18T03:04:37.118Z,30.70
2019-03-18T03:07:09.199Z,30.70
2019-03-18T03:09:41.187Z,30.80
2019-03-18T03:12:13.766Z,30.80
2019-03-18T03:14:45.761Z,30.90
2019-03-18T03:17:21.607Z,30.90
2019-03-18T03:19:53.105Z,31.00
2019-03-18T03:22:26.338Z,31.10
2019-03-18T03:24:59.225Z,31.20
2019-03-18T03:27:32.797Z,31.20
2019-03-18T03:30:05.212Z,31.30
2019-03-18T03:32:37.653Z,31.40
2019-03-18T03:35:10.261Z,31.50
2019-03-18T03:37:42.593Z,31.60
2019-03-18T03:40:15.723Z,31.70
2019-03-18T03:42:48.059Z,31.70
2019-03-18T03:45:22.742Z,31.80
2019-03-18T03:47:55.154Z,31.90
2019-03-18T03:50:27.855Z,32.00
2019-03-18T03:53:00.089Z,32.10
2019-03-18T03:55:32.915Z,32.20
2019-03-18T03:58:05.335Z,32.30
2019-03-18T04:00:38.109Z,32.40
2019-03-18T04:03:13.490Z,32.40
2019-03-18T04:05:47.428Z,32.50
2019-03-18T04:08:19.538Z,32.60
2019-03-18T04:10:51.620Z,32.70
2019-03-18T04:13:42.703Z,32.80
2019-03-18T04:16:16.376Z,32.90
2019-03-18T04:18:49.002Z,33.00
2019-03-18T04:21:21.058Z,33.00
2019-03-18T04:23:52.885Z,33.20
2019-03-18T04:26:26.197Z,33.20
2019-03-18T04:28:58.687Z,33.30
2019-03-18T04:31:30.584Z,33.40
2019-03-18T04:34:04.014Z,33.50
2019-03-18T04:36:37.829Z,33.70
2019-03-18T04:39:22.491Z,33.70
2019-03-18T04:41:54.738Z,33.90
2019-03-18T04:44:32.594Z,34.00
2019-03-18T04:47:14.208Z,34.00
2019-03-18T04:49:40.778Z,34.10
2019-03-18T04:52:12.836Z,34.20
2019-03-18T04:54:45.725Z,34.30
2019-03-18T04:57:18.251Z,34.30
2019-03-18T04:59:50.281Z,34.40
2019-03-18T05:02:22.520Z,34.60
2019-03-18T05:04:57.782Z,34.70
2019-03-18T05:07:52.508Z,34.80
2019-03-18T05:10:24.964Z,34.90
2019-03-18T05:12:57.432Z,35.10
2019-03-18T05:15:32.762Z,35.10
2019-03-18T05:18:04.948Z,35.10
2019-03-18T05:20:38.320Z,35.20
2019-03-18T05:23:10.930Z,35.20
2019-03-18T05:25:49.895Z,35.20
2019-03-18T05:28:22.778Z,35.20
2019-03-18T05:30:54.963Z,35.20
2019-03-18T05:33:29.307Z,35.30
2019-03-18T05:36:05.693Z,35.40
2019-03-18T05:38:38.589Z,35.50
2019-03-18T05:41:10.642Z,35.60
2019-03-18T05:43:42.597Z,35.70
2019-03-18T05:46:15.135Z,35.80
2019-03-18T05:48:47.164Z,35.80
2019-03-18T05:51:19.305Z,35.90
2019-03-18T05:53:51.312Z,35.90
2019-03-18T05:56:23.339Z,36.00
2019-03-18T05:58:56.169Z,36.20
2019-03-18T06:01:48.153Z,36.20
2019-03-18T06:04:20.529Z,36.40
2019-03-18T06:07:01.826Z,36.50
2019-03-18T06:09:34.174Z,36.70
2019-03-18T06:12:08.234Z,36.80
2019-03-18T06:14:46.154Z,36.90
2019-03-18T06:17:18.511Z,37.00
2019-03-18T06:19:50.535Z,37.10
2019-03-18T06:22:23.165Z,37.20
2019-03-18T06:24:55.676Z,37.20
2019-03-18T06:27:27.731Z,37.20
2019-03-18T06:30:00.991Z,37.20
2019-03-18T06:32:33.072Z,37.00
2019-03-18T06:35:05.430Z,36.90
2019-03-18T06:37:38.254Z,36.80
2019-03-18T06:40:13.719Z,36.80
2019-03-18T06:42:46.402Z,36.80
2019-03-18T06:45:18.415Z,36.80
2019-03-18T06:47:50.561Z,36.90
2019-03-18T06:50:22.735Z,37.00
2019-03-18T06:52:54.670Z,37.10
2019-03-18T06:55:26.801Z,37.30
2019-03-18T06:57:59.131Z,37.30
2019-03-18T07:00:31.748Z,37.40
2019-03-18T07:03:04.224Z,37.50
2019-03-18T07:05:36.530Z,37.60
2019-03-18T07:08:09.114Z,37.80
2019-03-18T07:10:41.949Z,37.90
2019-03-18T07:13:16.800Z,38.00
2019-03-18T07:15:48.201Z,38.00
2019-03-18T07:18:20.369Z,38.10
2019-03-18T07:20:52.873Z,38.20
2019-03-18T07:23:28.339Z,38.20
2019-03-18T07:26:04.560Z,38.20
2019-03-18T07:28:55.525Z,38.20
2019-03-18T07:31:29.107Z,38.20
2019-03-18T07:34:02.033Z,38.10
2019-03-18T07:36:35.200Z,37.90
2019-03-18T07:39:08.783Z,37.90
2019-03-18T07:41:40.904Z,37.80
2019-03-18T07:44:12.931Z,37.90
2019-03-18T07:46:45.128Z,37.90
2019-03-18T07:49:17.200Z,37.90
2019-03-18T07:51:49.253Z,38.00
2019-03-18T07:54:32.250Z,38.10
2019-03-18T07:56:58.110Z,38.20
2019-03-18T07:59:30.580Z,38.20
2019-03-18T08:02:02.722Z,38.30
2019-03-18T08:04:37.699Z,38.40
2019-03-18T08:07:08.651Z,38.30
2019-03-18T08:09:41.057Z,38.30
2019-03-18T08:12:13.170Z,38.30
2019-03-18T08:14:45.146Z,38.30
2019-03-18T08:17:17.884Z,38.30
2019-03-18T08:19:50.274Z,38.30
2019-03-18T08:22:23.019Z,38.30
2019-03-18T08:24:59.529Z,38.30
2019-03-18T08:27:31.903Z,38.20
2019-03-18T08:30:04.904Z,38.20
2019-03-18T08:32:39.040Z,38.20
2019-03-18T08:35:11.894Z,38.20
2019-03-18T08:37:43.975Z,38.30
2019-03-18T08:40:35.177Z,38.20
2019-03-18T08:43:08.029Z,38.20
2019-03-18T08:45:40.512Z,38.20
2019-03-18T08:48:13.502Z,38.20
2019-03-18T08:50:45.732Z,38.20
2019-03-18T08:53:18.001Z,38.20
2019-03-18T08:55:50.298Z,38.20
2019-03-18T08:58:22.434Z,38.10
2019-03-18T09:00:54.647Z,38.10
2019-03-18T09:03:38.653Z,38.20
2019-03-18T09:06:11.248Z,38.10
2019-03-18T09:08:57.431Z,38.00
2019-03-18T09:11:29.911Z,38.00
2019-03-18T09:14:01.880Z,38.00
2019-03-18T09:16:34.383Z,38.00
2019-03-18T09:19:08.903Z,38.00
2019-03-18T09:21:40.589Z,38.00
2019-03-18T09:24:13.272Z,38.00
2019-03-18T09:26:48.244Z,38.00
2019-03-18T09:29:43.233Z,37.90
2019-03-18T09:32:23.805Z,37.90
2019-03-18T09:35:02.302Z,37.90
2019-03-18T09:37:34.774Z,37.90
2019-03-18T09:40:15.978Z,37.90
2019-03-18T09:42:47.244Z,37.90
2019-03-18T09:45:38.914Z,37.80
2019-03-18T09:48:11.620Z,37.70
2019-03-18T09:50:43.681Z,37.60
2019-03-18T09:53:15.788Z,37.50
2019-03-18T09:55:48.179Z,37.50
2019-03-18T09:58:20.289Z,37.40
2019-03-18T10:00:52.579Z,37.30
2019-03-18T10:03:24.682Z,37.20
2019-03-18T10:06:27.646Z,37.20
2019-03-18T10:09:00.907Z,37.20
2019-03-18T10:11:33.351Z,37.10
2019-03-18T10:14:05.959Z,37.00
2019-03-18T10:16:38.744Z,37.00
2019-03-18T10:19:10.891Z,36.80
2019-03-18T10:21:48.577Z,36.80
2019-03-18T10:24:19.816Z,36.70
2019-03-18T10:26:52.225Z,36.50
2019-03-18T10:29:27.883Z,36.40
2019-03-18T10:32:00.018Z,36.30
2019-03-18T10:34:32.033Z,36.10
2019-03-18T10:37:07.770Z,36.00
2019-03-18T10:39:39.805Z,35.90
2019-03-18T10:42:12.503Z,35.80
2019-03-18T10:44:46.188Z,35.70
2019-03-18T10:47:18.865Z,35.60
2019-03-18T10:49:53.800Z,35.50
2019-03-18T10:52:31.950Z,35.40
2019-03-18T10:55:03.197Z,35.30
2019-03-18T10:57:55.333Z,35.20
2019-03-18T11:00:29.373Z,35.20
2019-03-18T11:03:02.864Z,35.10
2019-03-18T11:05:35.303Z,35.00
2019-03-18T11:08:08.362Z,34.90
2019-03-18T11:10:40.766Z,34.80
2019-03-18T11:13:13.189Z,34.70
2019-03-18T11:15:45.254Z,34.60
2019-03-18T11:18:25.183Z,34.50
2019-03-18T11:21:00.355Z,34.40
2019-03-18T11:23:34.048Z,34.30
2019-03-18T11:26:07.746Z,34.20
2019-03-18T11:28:40.186Z,34.20
2019-03-18T11:31:15.304Z,34.10
2019-03-18T11:33:49.704Z,34.00
2019-03-18T11:36:22.460Z,33.90
2019-03-18T11:39:08.555Z,33.80
2019-03-18T11:41:40.940Z,33.70
2019-03-18T11:44:13.093Z,33.60
2019-03-18T11:47:05.796Z,33.50
2019-03-18T11:49:39.783Z,33.40
2019-03-18T11:52:12.329Z,33.40
2019-03-18T11:54:44.796Z,33.30
2019-03-18T11:57:16.620Z,33.30
2019-03-18T11:59:48.918Z,33.20
2019-03-18T12:02:27.860Z,33.10
2019-03-18T12:04:57.970Z,33.10
2019-03-18T12:07:30.043Z,33.00
2019-03-18T12:10:02.433Z,33.00
2019-03-18T12:12:38.074Z,32.90
2019-03-18T12:15:14.246Z,32.90
2019-03-18T12:17:50.972Z,32.80
2019-03-18T12:20:26.059Z,32.80
2019-03-18T12:23:01.447Z,32.70
2019-03-18T12:25:33.995Z,32.70
2019-03-18T12:28:07.688Z,32.70
2019-03-18T12:30:39.934Z,32.60
2019-03-18T12:33:16.517Z,32.60
2019-03-18T12:35:48.544Z,32.50
2019-03-18T12:38:44.922Z,32.50
2019-03-18T12:41:16.901Z,32.50
2019-03-18T12:43:51.819Z,32.50
2019-03-18T12:46:27.716Z,32.40
2019-03-18T12:49:02.405Z,32.40
2019-03-18T12:51:35.697Z,32.40
2019-03-18T12:54:08.048Z,32.30
2019-03-18T12:56:40.065Z,32.30
2019-03-18T12:59:12.342Z,32.20
2019-03-18T13:01:45.660Z,32.20
2019-03-18T13:04:17.778Z,32.20
2019-03-18T13:06:49.550Z,32.20
2019-03-18T13:09:21.722Z,32.20
2019-03-18T13:11:54.279Z,32.20
2019-03-18T13:14:29.042Z,32.10
2019-03-18T13:17:02.359Z,32.20
2019-03-18T13:19:34.998Z,32.20
2019-03-18T13:22:10.175Z,32.20
2019-03-18T13:24:41.123Z,32.20
2019-03-18T13:27:13.306Z,32.20
2019-03-18T13:29:45.265Z,32.20
2019-03-18T13:32:17.442Z,32.20
2019-03-18T13:34:53.289Z,32.10
2019-03-18T13:37:25.063Z,32.10
2019-03-18T13:39:57.961Z,32.10
2019-03-18T13:42:42.304Z,32.10
2019-03-18T13:45:17.761Z,32.10
2019-03-18T13:47:50.391Z,32.00
2019-03-18T13:50:23.607Z,31.80
2019-03-18T13:52:56.362Z,31.80
2019-03-18T13:55:28.395Z,31.70
2019-03-18T13:58:00.338Z,31.60
2019-03-18T14:00:33.137Z,31.40
2019-03-18T14:03:08.144Z,31.30
2019-03-18T14:05:40.575Z,31.30
2019-03-18T14:08:12.867Z,31.20
2019-03-18T14:10:44.930Z,31.10
2019-03-18T14:13:17.333Z,31.00
2019-03-18T14:15:49.764Z,31.00
2019-03-18T14:18:21.924Z,30.90
2019-03-18T14:20:54.833Z,30.90
2019-03-18T14:23:27.186Z,30.90
2019-03-18T14:25:59.420Z,30.90
2019-03-18T14:28:32.065Z,30.90
2019-03-18T14:31:04.350Z,30.80
2019-03-18T14:33:36.397Z,30.80
2019-03-18T14:36:09.482Z,30.80
2019-03-18T14:38:41.513Z,30.80
2019-03-18T14:41:13.658Z,30.80
2019-03-18T14:43:47.314Z,30.70
2019-03-18T14:46:19.760Z,30.70
2019-03-18T14:48:52.072Z,30.70
2019-03-18T14:51:24.044Z,30.60
2019-03-18T14:53:56.502Z,30.60
2019-03-18T14:56:28.833Z,30.60
2019-03-18T14:59:00.823Z,30.50
2019-03-18T15:01:36.140Z,30.50
2019-03-18T15:04:08.108Z,30.40
2019-03-18T15:06:40.279Z,30.40
2019-03-18T15:09:12.530Z,30.40
2019-03-18T15:11:53.408Z,30.40
2019-03-18T15:14:26.071Z,30.30
2019-03-18T15:16:58.573Z,30.30
2019-03-18T15:19:49.620Z,30.30
2019-03-18T15:22:21.767Z,30.20
2019-03-18T15:24:54.584Z,30.20
2019-03-18T15:27:27.068Z,30.10
2019-03-18T15:29:59.243Z,30.00
2019-03-18T15:32:31.810Z,29.90
2019-03-18T15:35:04.609Z,29.80
2019-03-18T15:37:39.565Z,29.70
2019-03-18T15:40:15.812Z,29.60
2019-03-18T15:42:49.345Z,29.60
2019-03-18T15:45:24.705Z,29.60
2019-03-18T15:47:56.777Z,29.50
2019-03-18T15:50:48.139Z,29.40
2019-03-18T15:53:20.349Z,29.40
2019-03-18T15:55:57.258Z,29.40
2019-03-18T15:58:29.550Z,29.30
2019-03-18T16:01:02.017Z,29.20
2019-03-18T16:03:33.926Z,29.20
2019-03-18T16:06:06.236Z,29.10
2019-03-18T16:08:49.026Z,29.10
2019-03-18T16:14:25.968Z,29.00
2019-03-18T16:17:02.263Z,29.00
2019-03-18T16:19:32.351Z,28.90
2019-03-18T16:22:04.307Z,28.90
2019-03-18T16:24:36.109Z,28.90
2019-03-18T16:27:08.500Z,28.90
2019-03-18T16:29:40.609Z,28.90
2019-03-18T16:32:13.073Z,28.80
2019-03-18T16:34:45.292Z,28.80
2019-03-18T16:37:17.268Z,28.80
2019-03-18T16:39:49.340Z,28.80
2019-03-18T16:42:21.379Z,28.70
2019-03-18T16:44:53.320Z,28.70
2019-03-18T16:47:26.414Z,28.70
2019-03-18T16:49:58.571Z,28.70
2019-03-18T16:52:35.748Z,28.70
2019-03-18T16:55:04.139Z,28.70
2019-03-18T16:57:36.153Z,28.70
2019-03-18T17:00:12.312Z,28.70
2019-03-18T17:02:44.407Z,28.70
2019-03-18T17:05:19.038Z,28.70
2019-03-18T17:07:54.037Z,28.70
2019-03-18T17:10:25.185Z,28.60
2019-03-18T17:12:59.796Z,28.60
2019-03-18T17:15:33.304Z,28.60
2019-03-18T17:18:05.364Z,28.60
2019-03-18T17:20:37.320Z,28.60
2019-03-18T17:23:09.238Z,28.60
2019-03-18T17:25:41.764Z,28.60
2019-03-18T17:28:13.717Z,28.60
2019-03-18T17:30:45.489Z,28.60
2019-03-18T17:33:17.389Z,28.60
2019-03-18T17:35:49.544Z,28.60
2019-03-18T17:38:21.721Z,28.60
2019-03-18T17:40:54.287Z,28.60
2019-03-18T17:43:26.246Z,28.60
2019-03-18T17:46:02.620Z,28.60
2019-03-18T17:48:35.782Z,28.50
2019-03-18T17:51:07.864Z,28.50
2019-03-18T17:53:46.305Z,28.50
2019-03-18T17:56:29.654Z,28.50
2019-03-18T17:58:52.180Z,28.50
2019-03-18T18:01:24.012Z,28.50
2019-03-18T18:03:56.012Z,28.50
2019-03-18T18:06:28.130Z,28.50
2019-03-18T18:09:00.108Z,28.50
2019-03-18T18:11:32.129Z,28.40
2019-03-18T18:14:05.229Z,28.40
2019-03-18T18:16:37.712Z,28.40
2019-03-18T18:19:10.286Z,28.40
2019-03-18T18:21:42.504Z,28.30
2019-03-18T18:24:14.263Z,28.30
2019-03-18T18:26:46.474Z,28.20
2019-03-18T18:29:18.828Z,28.20
2019-03-18T18:31:50.557Z,28.20
2019-03-18T18:34:22.883Z,28.20
2019-03-18T18:36:54.868Z,28.20
2019-03-18T18:39:26.683Z,28.20
2019-03-18T18:41:59.036Z,28.10
2019-03-18T18:44:34.044Z,28.10
2019-03-18T18:47:06.437Z,28.10
2019-03-18T18:49:39.135Z,28.10
2019-03-18T18:52:11.283Z,28.10
2019-03-18T18:54:43.264Z,28.10
2019-03-18T18:57:15.440Z,28.10
2019-03-18T18:59:47.789Z,28.10
2019-03-18T19:02:19.771Z,28.10
2019-03-18T19:04:51.965Z,28.10
2019-03-18T19:07:24.324Z,28.10
2019-03-18T19:09:56.326Z,28.10
2019-03-18T19:12:28.304Z,28.10
2019-03-18T19:15:00.929Z,28.10
2019-03-18T19:17:33.668Z,28.10
2019-03-18T19:20:07.844Z,28.10
2019-03-18T19:22:39.961Z,28.10
2019-03-18T19:25:15.762Z,28.10
2019-03-18T19:27:48.117Z,28.10
2019-03-18T19:30:23.410Z,28.10
2019-03-18T19:32:55.552Z,28.10
2019-03-18T19:35:28.723Z,28.10
2019-03-18T19:38:01.927Z,28.10
2019-03-18T19:40:34.045Z,28.10
2019-03-18T19:43:06.307Z,28.00
2019-03-18T19:45:38.468Z,28.00
2019-03-18T19:48:10.626Z,28.00
2019-03-18T19:50:44.522Z,27.90
2019-03-18T19:53:16.601Z,27.90
2019-03-18T19:55:48.742Z,27.90
2019-03-18T19:58:21.434Z,27.90
2019-03-18T20:00:53.348Z,27.90
2019-03-18T20:03:26.582Z,27.90
2019-03-18T20:06:01.065Z,27.90
2019-03-18T20:08:33.170Z,27.90
2019-03-18T20:11:06.070Z,27.90
2019-03-18T20:13:38.053Z,27.90
2019-03-18T20:16:10.159Z,27.90
2019-03-18T20:18:42.483Z,27.90
2019-03-18T20:21:15.168Z,27.90
2019-03-18T20:23:47.123Z,27.80
2019-03-18T20:26:19.391Z,27.80
2019-03-18T20:28:51.604Z,27.80
2019-03-18T20:31:25.941Z,27.80
2019-03-18T20:33:57.232Z,27.80
2019-03-18T20:36:29.229Z,27.80
2019-03-18T20:39:01.184Z,27.80
2019-03-18T20:41:33.846Z,27.70
2019-03-18T20:44:06.098Z,27.70
2019-03-18T20:46:38.167Z,27.70
2019-03-18T20:49:10.667Z,27.70
2019-03-18T20:51:43.086Z,27.60
2019-03-18T20:54:15.916Z,27.60
2019-03-18T20:56:48.253Z,27.60
2019-03-18T20:59:20.078Z,27.60
2019-03-18T21:01:51.895Z,27.60
2019-03-18T21:04:24.121Z,27.60
2019-03-18T21:06:56.052Z,27.50
2019-03-18T21:09:28.332Z,27.50
2019-03-18T21:12:00.701Z,27.50
2019-03-18T21:14:32.757Z,27.40
2019-03-18T21:17:05.042Z,27.30
2019-03-18T21:19:37.707Z,27.20
2019-03-18T21:22:09.763Z,27.20
2019-03-18T21:24:41.595Z,27.20
2019-03-18T21:27:14.332Z,27.10
2019-03-18T21:29:46.256Z,27.00
2019-03-18T21:32:18.569Z,26.90
2019-03-18T21:34:52.591Z,26.80
2019-03-18T21:37:24.614Z,26.80
2019-03-18T21:39:56.559Z,26.80
2019-03-18T21:42:28.678Z,26.70
2019-03-18T21:45:00.849Z,26.70
2019-03-18T21:47:33.007Z,26.70
2019-03-18T21:50:07.062Z,26.60
2019-03-18T21:52:38.963Z,26.60
2019-03-18T21:55:11.343Z,26.60
2019-03-18T21:57:45.238Z,26.50
2019-03-18T22:00:20.707Z,26.50
2019-03-18T22:02:53.047Z,26.50
2019-03-18T22:05:25.294Z,26.50
2019-03-18T22:07:58.764Z,26.50
2019-03-18T22:10:30.497Z,26.50
2019-03-18T22:13:02.604Z,26.50
2019-03-18T22:15:34.949Z,26.50
2019-03-18T22:18:07.066Z,26.50
2019-03-18T22:20:41.151Z,26.60
2019-03-18T22:23:15.057Z,26.60
2019-03-18T22:25:47.132Z,26.60
2019-03-18T22:28:18.903Z,26.70
2019-03-18T22:30:50.819Z,26.70
2019-03-18T22:33:22.915Z,26.70
2019-03-18T22:35:54.969Z,26.70
2019-03-18T22:38:27.029Z,26.80
2019-03-18T22:40:59.255Z,26.80
2019-03-18T22:43:31.383Z,26.80
2019-03-18T22:46:03.206Z,26.90
2019-03-18T22:48:35.933Z,26.80
2019-03-18T22:51:08.282Z,26.80
2019-03-18T22:53:40.429Z,26.90
2019-03-18T22:56:12.729Z,26.80
2019-03-18T22:58:45.583Z,26.80
2019-03-18T23:01:19.435Z,26.80
2019-03-18T23:03:51.704Z,26.80
2019-03-18T23:06:23.730Z,26.80
2019-03-18T23:08:56.094Z,26.70
2019-03-18T23:11:28.303Z,26.70
2019-03-18T23:14:00.361Z,26.70
2019-03-18T23:16:32.764Z,26.60
2019-03-18T23:19:04.839Z,26.60
2019-03-18T23:21:37.262Z,26.70
2019-03-18T23:24:09.901Z,26.70
2019-03-18T23:26:42.133Z,26.70
2019-03-18T23:29:14.208Z,26.70
2019-03-18T23:31:46.269Z,26.60
2019-03-18T23:34:19.349Z,26.60
2019-03-18T23:36:51.965Z,26.60
2019-03-18T23:39:24.247Z,26.60
2019-03-18T23:41:56.389Z,26.70
2019-03-18T23:44:28.648Z,26.60
2019-03-18T23:47:00.650Z,26.70
2019-03-18T23:49:33.030Z,26.70
2019-03-18T23:52:05.196Z,26.70
2019-03-18T23:54:39.120Z,26.70
2019-03-18T23:57:11.129Z,26.70
2019-03-18T23:59:43.855Z,26.60
